Time;durP1;ratioP1;P1;durP2;ratioP2;P2;SDS_P1;SDS_P2;PMS_P1;PMS_P2;Temp;Humidity;BMP_temperature;BMP_pressure;BME280_temperature;BME280_humidity;BME280_pressure;Samples;Min_cycle;Max_cycle;Signal;HPM_P1;HPM_P2
2022/03/22 00:01:35;;;;;;;46.17;24.90;;;5.30;99.90;;;;;;5050534;28;20584;-70
2022/03/22 00:04:02;;;;;;;48.42;28.17;;;5.30;99.90;;;;;;5072428;28;20036;-71
2022/03/22 00:06:32;;;;;;;43.90;24.50;;;5.30;99.90;;;;;;5042464;28;20388;-70
2022/03/22 00:08:58;;;;;;;48.45;26.48;;;5.20;99.90;;;;;;5054576;28;20036;-70
2022/03/22 00:11:24;;;;;;;46.78;27.35;;;5.10;99.90;;;;;;5074236;28;20420;-71
2022/03/22 00:13:50;;;;;;;47.22;25.80;;;5.10;99.90;;;;;;5089716;28;20036;-70
2022/03/22 00:16:16;;;;;;;46.88;26.33;;;5.00;99.90;;;;;;5071777;28;20043;-71
2022/03/22 00:18:42;;;;;;;51.42;28.23;;;5.00;99.90;;;;;;5089951;28;20047;-71
2022/03/22 00:21:08;;;;;;;52.15;28.13;;;5.00;99.90;;;;;;5067025;28;20056;-70
2022/03/22 00:23:34;;;;;;;53.88;29.25;;;5.00;99.90;;;;;;5052196;28;20433;-71
2022/03/22 00:26:01;;;;;;;54.60;29.40;;;5.00;99.90;;;;;;5086508;28;20094;-70
2022/03/22 00:28:27;;;;;;;51.30;28.95;;;5.00;99.90;;;;;;5073300;28;20055;-70
2022/03/22 00:30:53;;;;;;;48.25;27.52;;;4.90;99.90;;;;;;5071163;28;20119;-70
2022/03/22 00:33:19;;;;;;;53.45;28.30;;;4.90;99.90;;;;;;5058556;28;20044;-71
2022/03/22 00:35:45;;;;;;;47.15;25.67;;;4.90;99.90;;;;;;5074778;28;20044;-70
2022/03/22 00:38:16;;;;;;;52.40;28.83;;;4.80;99.90;;;;;;5068416;28;20043;-70
2022/03/22 00:40:43;;;;;;;50.83;28.67;;;4.80;99.90;;;;;;5079372;28;20475;-72
2022/03/22 00:43:09;;;;;;;50.92;28.73;;;4.80;99.90;;;;;;5075286;28;20082;-70
2022/03/22 00:45:37;;;;;;;52.65;28.17;;;4.70;99.90;;;;;;5090913;28;20040;-71
2022/03/22 00:48:05;;;;;;;51.70;28.08;;;4.70;99.90;;;;;;5058435;28;20517;-70
2022/03/22 00:50:35;;;;;;;53.92;28.38;;;4.60;99.90;;;;;;5072440;28;20578;-70
2022/03/22 00:53:04;;;;;;;56.97;30.38;;;4.60;99.90;;;;;;5018029;28;20090;-71
2022/03/22 00:55:31;;;;;;;57.95;30.98;;;4.60;99.90;;;;;;5041343;28;20472;-72
2022/03/22 00:57:58;;;;;;;54.10;28.95;;;4.60;99.90;;;;;;5092045;28;20036;-70
2022/03/22 01:00:26;;;;;;;59.78;31.88;;;4.70;99.90;;;;;;5058973;28;20084;-71
2022/03/22 01:02:54;;;;;;;58.45;29.77;;;4.60;99.90;;;;;;5087388;28;20036;-71
2022/03/22 01:05:22;;;;;;;55.42;30.50;;;4.60;99.90;;;;;;5066834;28;20255;-71
2022/03/22 01:08:08;;;;;;;53.45;30.13;;;4.60;99.90;;;;;;5074861;28;20040;-70
2022/03/22 01:10:38;;;;;;;50.25;27.45;;;4.70;99.90;;;;;;5077724;28;20571;-72
2022/03/22 01:13:06;;;;;;;51.15;27.58;;;4.70;99.90;;;;;;5072794;28;20036;-71
2022/03/22 01:15:34;;;;;;;51.40;27.52;;;4.70;99.90;;;;;;5088029;28;20048;-70
2022/03/22 01:18:05;;;;;;;50.17;27.30;;;4.70;99.90;;;;;;5054997;28;20058;-71
2022/03/22 01:20:33;;;;;;;;;;;4.70;99.90;;;;;;5048395;28;20516;-70
2022/03/22 01:23:00;;;;;;;45.83;24.88;;;4.70;99.90;;;;;;5073123;28;20121;-70
2022/03/22 01:25:30;;;;;;;50.30;25.80;;;4.70;99.90;;;;;;5054360;28;20044;-71
2022/03/22 01:27:57;;;;;;;49.13;26.25;;;4.70;99.90;;;;;;5074487;28;20048;-70
2022/03/22 01:30:24;;;;;;;59.55;29.48;;;4.60;99.90;;;;;;5053733;28;20040;-71
2022/03/22 01:32:53;;;;;;;51.42;27.80;;;4.60;99.90;;;;;;5058588;28;20040;-70
2022/03/22 01:35:20;;;;;;;60.20;30.83;;;4.70;99.90;;;;;;5057393;28;20040;-70
2022/03/22 01:37:49;;;;;;;56.60;29.65;;;4.70;99.90;;;;;;5058078;28;20685;-71
2022/03/22 01:40:21;;;;;;;49.67;26.67;;;4.80;99.90;;;;;;5090372;28;20063;-71
2022/03/22 01:42:47;;;;;;;50.70;26.58;;;4.70;99.90;;;;;;5057852;28;20056;-70
2022/03/22 01:45:15;;;;;;;47.90;25.83;;;4.70;99.90;;;;;;5074048;28;20048;-70
2022/03/22 01:47:43;;;;;;;48.22;26.42;;;4.70;99.90;;;;;;5075001;28;20040;-71
2022/03/22 01:50:12;;;;;;;54.42;29.05;;;4.70;99.90;;;;;;5073276;28;20121;-71
2022/03/22 01:52:40;;;;;;;44.72;24.05;;;4.70;99.90;;;;;;5074637;28;20043;-70
2022/03/22 01:55:08;;;;;;;48.30;24.75;;;4.70;99.90;;;;;;5056610;28;20044;-71
2022/03/22 01:57:35;;;;;;;58.97;28.75;;;4.70;99.90;;;;;;5091513;28;20079;-70
2022/03/22 02:00:04;;;;;;;56.85;29.05;;;4.70;99.90;;;;;;5052804;28;20083;-70
2022/03/22 02:08:01;;;;;;;42.45;22.48;;;4.70;99.90;;;;;;5071566;28;20039;-70
2022/03/22 02:10:28;;;;;;;45.15;25.27;;;4.60;99.90;;;;;;5068804;28;20036;-70
2022/03/22 02:12:54;;;;;;;42.17;23.80;;;4.50;99.90;;;;;;5084673;28;20048;-71
2022/03/22 02:15:20;;;;;;;52.40;26.75;;;4.50;99.90;;;;;;5085881;28;20040;-71
2022/03/22 02:17:46;;;;;;;51.75;27.52;;;4.50;99.90;;;;;;5069647;28;20078;-71
2022/03/22 02:20:13;;;;;;;57.92;29.95;;;4.50;99.90;;;;;;5033945;28;20527;-72
2022/03/22 02:23:05;;;;;;;58.65;30.20;;;4.50;99.90;;;;;;5028699;28;20072;-70
2022/03/22 02:25:35;;;;;;;52.78;27.30;;;4.50;99.90;;;;;;5045923;28;20040;-71
2022/03/22 02:28:03;;;;;;;51.05;26.73;;;4.50;99.90;;;;;;5065654;28;20043;-71
2022/03/22 02:30:29;;;;;;;56.05;29.48;;;4.40;99.90;;;;;;5053147;28;20495;-71
2022/03/22 02:32:59;;;;;;;50.92;27.90;;;4.50;99.90;;;;;;5055890;28;20371;-70
2022/03/22 02:35:25;;;;;;;56.88;28.90;;;4.50;99.90;;;;;;5070364;28;20040;-70
2022/03/22 02:37:52;;;;;;;58.38;30.83;;;4.40;99.90;;;;;;5061791;28;20131;-71
2022/03/22 02:40:18;;;;;;;59.25;29.42;;;4.40;99.90;;;;;;5069090;28;20040;-70
2022/03/22 02:42:49;;;;;;;60.28;30.80;;;4.40;99.90;;;;;;5065270;28;20393;-72
2022/03/22 02:45:16;;;;;;;52.53;27.65;;;4.30;99.90;;;;;;5053168;28;20065;-70
2022/03/22 02:47:43;;;;;;;58.58;28.50;;;4.30;99.90;;;;;;5055974;28;20090;-72
2022/03/22 02:50:10;;;;;;;52.83;29.13;;;4.30;99.90;;;;;;5055174;28;20044;-70
2022/03/22 02:52:37;;;;;;;54.38;28.45;;;4.40;99.90;;;;;;5053688;28;20385;-70
2022/03/22 02:55:06;;;;;;;53.55;28.35;;;4.40;99.90;;;;;;5067578;28;20051;-71
2022/03/22 02:57:32;;;;;;;54.70;27.85;;;4.40;99.90;;;;;;5071219;28;20404;-71
2022/03/22 02:59:58;;;;;;;60.83;31.23;;;4.30;99.90;;;;;;5072497;28;20072;-71
2022/03/22 03:02:24;;;;;;;52.03;29.20;;;4.30;99.90;;;;;;5056297;28;20040;-71
2022/03/22 03:04:50;;;;;;;57.92;30.77;;;4.30;99.90;;;;;;5049479;28;20044;-71
2022/03/22 03:07:16;;;;;;;62.10;31.98;;;4.30;99.90;;;;;;5064897;28;20040;-70
2022/03/22 03:09:42;;;;;;;53.05;29.08;;;4.20;99.90;;;;;;5071096;28;20127;-72
2022/03/22 03:12:08;;;;;;;57.47;29.00;;;4.20;99.90;;;;;;5079567;28;20055;-71
2022/03/22 03:14:40;;;;;;;61.78;29.95;;;4.20;99.90;;;;;;5061010;28;20051;-70
2022/03/22 03:17:12;;;;;;;54.63;29.35;;;4.20;99.90;;;;;;5071589;28;20036;-71
2022/03/22 03:19:38;;;;;;;60.30;30.05;;;4.20;99.90;;;;;;5051323;28;20476;-72
2022/03/22 03:22:04;;;;;;;61.78;31.17;;;4.30;99.90;;;;;;5071916;28;20332;-71
2022/03/22 03:24:32;;;;;;;54.40;28.40;;;4.30;99.90;;;;;;5045573;28;20036;-70
2022/03/22 03:26:58;;;;;;;60.50;31.85;;;4.30;99.90;;;;;;5073757;28;20076;-70
2022/03/22 03:29:25;;;;;;;66.72;32.78;;;4.20;99.90;;;;;;5059854;28;20365;-70
2022/03/22 03:31:51;;;;;;;66.13;34.53;;;4.30;99.90;;;;;;5068101;28;20395;-70
2022/03/22 03:34:17;;;;;;;56.65;30.13;;;4.30;99.90;;;;;;5071654;28;20055;-70
2022/03/22 03:36:43;;;;;;;65.07;32.15;;;4.40;99.90;;;;;;5073039;28;20043;-70
2022/03/22 03:39:10;;;;;;;59.72;30.25;;;4.30;99.90;;;;;;5052803;28;20036;-71
2022/03/22 03:42:00;;;;;;;59.78;33.13;;;4.30;99.90;;;;;;5057835;28;20047;-70
2022/03/22 03:47:35;;;;;;;61.83;31.58;;;4.40;99.90;;;;;;5021622;28;20041;-70
2022/03/22 03:50:05;;;;;;;62.28;33.10;;;4.40;99.90;;;;;;5011360;28;20139;-70
2022/03/22 03:52:36;;;;;;;65.90;33.20;;;3.50;99.90;;;;;;5030071;28;20499;-70
2022/03/22 03:55:05;;;;;;;64.07;33.03;;;4.40;99.90;;;;;;5039731;28;20141;-70
2022/03/22 03:57:32;;;;;;;49.15;27.77;;;4.40;99.90;;;;;;5082198;28;20032;-70
2022/03/22 03:59:59;;;;;;;55.47;29.27;;;4.30;99.90;;;;;;5062956;28;20048;-72
2022/03/22 04:02:25;;;;;;;55.05;29.70;;;4.20;99.90;;;;;;5071903;28;20036;-72
2022/03/22 04:04:52;;;;;;;58.10;31.40;;;4.30;99.90;;;;;;5056892;28;20105;-70
2022/03/22 04:07:23;;;;;;;62.00;32.55;;;4.40;99.90;;;;;;5087566;28;20048;-71
2022/03/22 04:09:50;;;;;;;59.88;31.33;;;4.40;99.90;;;;;;5069169;28;20476;-71
2022/03/22 04:12:17;;;;;;;57.13;31.38;;;4.50;99.90;;;;;;5042688;28;20104;-70
2022/03/22 04:14:43;;;;;;;59.03;30.60;;;4.60;99.90;;;;;;5051271;28;20062;-72
2022/03/22 04:17:09;;;;;;;64.88;31.23;;;4.70;99.90;;;;;;5081072;28;20044;-71
2022/03/22 04:19:36;;;;;;;63.13;30.90;;;4.70;99.90;;;;;;5091248;28;20068;-71
2022/03/22 04:22:03;;;;;;;61.88;32.40;;;4.80;99.90;;;;;;5079490;28;20141;-70
2022/03/22 04:24:30;;;;;;;60.83;31.30;;;4.80;99.90;;;;;;5052600;28;20119;-70
2022/03/22 04:32:41;;;;;;;61.53;31.38;;;4.90;99.90;;;;;;5050488;28;20044;-70
2022/03/22 04:32:44;;;;;;;61.85;31.08;;;5.00;99.90;;;;;;5056307;28;20045;-71
2022/03/22 04:35:19;;;;;;;63.25;32.60;;;5.00;99.90;;;;;;5061423;28;20052;-71
2022/03/22 04:37:49;;;;;;;54.78;28.58;;;4.90;99.90;;;;;;5071170;28;20036;-71
2022/03/22 04:40:15;;;;;;;58.75;30.83;;;4.90;99.90;;;;;;5054685;28;20672;-70
2022/03/22 04:42:42;;;;;;;56.47;29.10;;;4.30;99.90;;;;;;5073393;28;20082;-70
2022/03/22 04:45:11;;;;;;;56.30;29.60;;;4.90;99.90;;;;;;5063511;28;20570;-70
2022/03/22 04:47:37;;;;;;;56.38;30.92;;;4.90;99.90;;;;;;5085959;28;20040;-70
2022/03/22 04:50:04;;;;;;;55.83;29.45;;;4.90;99.90;;;;;;5047841;28;20052;-70
2022/03/22 04:57:59;;;;;;;53.75;29.52;;;4.80;99.90;;;;;;5057305;28;20064;-70
2022/03/22 05:00:25;;;;;;;59.38;31.30;;;4.70;99.90;;;;;;5060596;28;20450;-70
2022/03/22 05:02:52;;;;;;;56.22;29.95;;;4.70;99.90;;;;;;5052567;28;20123;-71
2022/03/22 05:06:25;;;;;;;55.85;29.25;;;4.70;99.90;;;;;;5044702;28;20036;-70
2022/03/22 05:08:07;;;;;;;52.35;26.60;;;4.60;99.90;;;;;;5072009;28;20052;-71
2022/03/22 05:10:34;;;;;;;53.65;29.02;;;4.50;99.90;;;;;;5074057;28;20055;-70
2022/03/22 05:13:00;;;;;;;50.00;27.60;;;4.40;99.90;;;;;;5067488;28;20036;-71
2022/03/22 05:15:26;;;;;;;53.53;28.52;;;4.40;99.90;;;;;;5072825;28;20052;-70
2022/03/22 05:17:52;;;;;;;56.08;30.00;;;4.40;99.90;;;;;;5070080;28;20464;-70
2022/03/22 05:20:18;;;;;;;56.20;29.77;;;4.40;99.90;;;;;;5054573;28;20044;-70
2022/03/22 05:22:44;;;;;;;51.97;27.70;;;4.40;99.90;;;;;;5073354;28;20498;-71
2022/03/22 05:25:11;;;;;;;54.28;27.75;;;4.50;99.90;;;;;;5057585;28;20047;-71
2022/03/22 05:27:40;;;;;;;49.78;27.83;;;4.40;99.90;;;;;;5058916;28;20431;-70
2022/03/22 05:30:07;;;;;;;47.40;25.70;;;4.40;99.90;;;;;;5065267;28;20219;-70
2022/03/22 05:32:34;;;;;;;50.40;27.20;;;4.40;99.90;;;;;;5057199;28;20044;-70
2022/03/22 05:35:00;;;;;;;53.85;28.85;;;4.40;99.90;;;;;;5090974;28;20118;-70
2022/03/22 05:37:26;;;;;;;46.65;24.77;;;4.30;99.90;;;;;;5073850;28;20057;-70
2022/03/22 05:39:52;;;;;;;54.05;28.15;;;4.30;99.90;;;;;;5058596;28;20036;-70
2022/03/22 05:42:18;;;;;;;55.60;29.27;;;4.30;99.90;;;;;;5074659;28;20093;-70
2022/03/22 05:44:45;;;;;;;56.10;30.80;;;4.30;99.90;;;;;;5057692;28;20438;-70
2022/03/22 05:47:11;;;;;;;62.65;31.65;;;4.20;99.90;;;;;;5074760;28;20076;-70
2022/03/22 05:49:38;;;;;;;60.70;31.65;;;4.20;99.90;;;;;;5074212;28;20118;-70
2022/03/22 05:52:05;;;;;;;58.22;30.70;;;4.20;99.90;;;;;;5090874;28;20442;-70
2022/03/22 05:54:32;;;;;;;57.55;29.60;;;4.20;99.90;;;;;;5069042;28;20111;-70
2022/03/22 05:56:58;;;;;;;55.10;29.10;;;4.20;99.90;;;;;;5072553;28;20128;-70
2022/03/22 05:59:24;;;;;;;57.25;30.17;;;4.30;99.90;;;;;;5070952;28;20040;-71
2022/03/22 06:01:50;;;;;;;61.95;29.88;;;4.30;99.90;;;;;;5064213;28;20080;-70
2022/03/22 06:04:17;;;;;;;60.72;29.20;;;4.40;99.90;;;;;;5055100;28;20044;-70
2022/03/22 06:06:43;;;;;;;53.67;28.48;;;4.40;99.90;;;;;;5070081;28;20456;-70
2022/03/22 06:09:10;;;;;;;56.53;28.92;;;4.40;99.90;;;;;;5069225;28;20059;-70
2022/03/22 06:11:36;;;;;;;54.60;28.10;;;4.40;99.90;;;;;;5038785;28;20052;-70
2022/03/22 06:14:04;;;;;;;55.40;28.55;;;4.40;99.90;;;;;;5048666;28;20059;-70
2022/03/22 06:16:30;;;;;;;52.05;28.83;;;4.40;99.90;;;;;;5054360;28;20055;-70
2022/03/22 06:18:56;;;;;;;52.65;28.25;;;4.50;99.90;;;;;;5051658;28;20052;-70
2022/03/22 06:21:22;;;;;;;54.03;28.33;;;4.50;99.90;;;;;;5032913;28;20044;-71
2022/03/22 06:23:48;;;;;;;48.90;26.80;;;4.50;99.90;;;;;;5013322;28;20090;-70
2022/03/22 06:26:15;;;;;;;45.72;25.30;;;4.00;99.90;;;;;;5032185;28;20049;-70
2022/03/22 06:28:42;;;;;;;54.50;28.00;;;4.50;99.90;;;;;;5046095;28;20115;-71
2022/03/22 06:31:08;;;;;;;52.65;28.50;;;4.60;99.90;;;;;;5036517;28;20049;-70
2022/03/22 06:33:35;;;;;;;49.22;27.35;;;4.60;99.90;;;;;;5024230;28;20048;-70
2022/03/22 06:36:01;;;;;;;55.03;29.90;;;4.60;99.90;;;;;;5049525;28;20048;-71
2022/03/22 06:38:32;;;;;;;54.33;29.45;;;4.70;99.90;;;;;;5044610;28;20425;-70
2022/03/22 06:40:59;;;;;;;52.80;29.45;;;4.70;99.90;;;;;;5066901;28;20037;-70
2022/03/22 06:43:25;;;;;;;49.42;28.15;;;4.80;99.90;;;;;;5050840;28;20048;-70
2022/03/22 06:45:51;;;;;;;56.95;29.80;;;4.90;99.90;;;;;;5049781;28;20051;-70
2022/03/22 06:48:18;;;;;;;57.63;29.20;;;4.80;99.90;;;;;;5034802;28;20048;-70
2022/03/22 06:50:49;;;;;;;54.30;29.17;;;4.30;99.90;;;;;;5039451;28;20043;-70
2022/03/22 06:53:16;;;;;;;53.88;29.80;;;5.00;99.90;;;;;;5032875;28;20068;-70
2022/03/22 06:55:43;;;;;;;51.78;28.33;;;5.10;99.90;;;;;;5063960;28;20053;-72
2022/03/22 06:58:09;;;;;;;61.72;32.95;;;5.10;99.90;;;;;;5035177;28;20075;-70
2022/03/22 07:00:35;;;;;;;58.38;31.00;;;5.20;99.90;;;;;;5032149;28;20040;-70
2022/03/22 07:03:02;;;;;;;59.58;32.30;;;5.30;99.90;;;;;;5032442;28;20092;-71
2022/03/22 07:05:29;;;;;;;57.83;29.88;;;5.50;99.90;;;;;;5033688;28;20048;-70
2022/03/22 07:07:56;;;;;;;58.50;30.65;;;5.80;99.90;;;;;;5052294;28;20354;-70
2022/03/22 07:10:22;;;;;;;55.15;30.33;;;6.10;99.90;;;;;;5060719;28;20044;-71
2022/03/22 07:12:53;;;;;;;61.17;31.20;;;6.30;99.90;;;;;;5056713;28;20051;-70
2022/03/22 07:15:27;;;;;;;65.70;33.08;;;6.50;99.90;;;;;;5065276;28;20040;-70
2022/03/22 07:17:54;;;;;;;64.70;33.50;;;6.70;99.90;;;;;;5070837;28;20111;-71
2022/03/22 07:20:21;;;;;;;56.47;30.40;;;6.80;99.90;;;;;;5068695;28;20430;-70
2022/03/22 07:22:50;;;;;;;55.13;29.83;;;7.00;99.90;;;;;;5048047;28;20499;-71
2022/03/22 07:25:17;;;;;;;56.55;32.42;;;7.20;99.90;;;;;;5075880;28;20511;-71
2022/03/22 07:27:43;;;;;;;56.60;30.33;;;7.30;99.90;;;;;;5077543;28;20136;-71
2022/03/22 07:30:12;;;;;;;59.60;31.40;;;7.40;99.90;;;;;;5093734;28;20434;-71
2022/03/22 07:32:39;;;;;;;56.17;29.60;;;7.50;99.90;;;;;;5063688;28;20048;-71
2022/03/22 07:35:07;;;;;;;55.55;30.80;;;7.60;99.90;;;;;;5059335;28;20040;-71
2022/03/22 07:37:36;;;;;;;52.22;30.17;;;7.70;99.90;;;;;;5044591;28;20044;-71
2022/03/22 07:40:10;;;;;;;52.70;29.63;;;7.80;99.90;;;;;;5076138;28;20040;-70
2022/03/22 07:42:37;;;;;;;54.53;30.90;;;7.90;99.90;;;;;;5064960;28;20036;-71
2022/03/22 07:45:10;;;;;;;50.85;29.20;;;8.00;99.90;;;;;;5076459;28;20048;-72
2022/03/22 07:47:37;;;;;;;53.90;30.27;;;8.10;99.90;;;;;;5075203;28;20469;-71
2022/03/22 07:53:01;;;;;;;52.83;28.63;;;8.30;99.90;;;;;;5092148;28;20040;-70
2022/03/22 07:55:30;;;;;;;56.67;31.17;;;8.40;99.90;;;;;;5081619;28;20043;-71
2022/03/22 07:57:57;;;;;;;51.83;29.15;;;8.50;99.90;;;;;;5071869;28;20033;-71
2022/03/22 08:00:27;;;;;;;51.20;29.63;;;8.60;99.90;;;;;;5052120;28;20048;-70
2022/03/22 08:02:55;;;;;;;49.25;28.67;;;8.70;99.90;;;;;;5072857;28;20040;-71
2022/03/22 08:05:22;;;;;;;54.03;29.27;;;8.80;99.90;;;;;;5057152;28;20051;-70
2022/03/22 08:07:48;;;;;;;48.42;28.60;;;9.00;99.90;;;;;;5076598;28;20385;-72
2022/03/22 08:10:14;;;;;;;52.13;28.33;;;9.20;99.90;;;;;;5099080;28;20044;-70
2022/03/22 08:12:41;;;;;;;51.20;27.83;;;9.30;99.90;;;;;;5089088;28;20044;-71
2022/03/22 08:15:11;;;;;;;48.55;27.52;;;9.40;99.90;;;;;;5072672;28;20048;-70
2022/03/22 08:17:37;;;;;;;54.22;29.73;;;9.50;99.90;;;;;;5086082;28;20126;-71
2022/03/22 08:20:08;;;;;;;48.97;28.52;;;9.90;99.90;;;;;;5064454;28;20046;-71
2022/03/22 08:22:52;;;;;;;48.78;27.92;;;9.80;99.90;;;;;;5038489;28;20124;-70
2022/03/22 08:25:38;;;;;;;50.92;28.75;;;9.90;99.90;;;;;;5070898;28;20064;-71
2022/03/22 08:28:08;;;;;;;50.28;29.42;;;10.10;99.90;;;;;;5093149;28;20044;-71
2022/03/22 08:30:35;;;;;;;54.63;28.98;;;10.30;99.90;;;;;;5040780;28;20127;-71
2022/03/22 08:33:06;;;;;;;53.28;28.85;;;10.40;99.90;;;;;;5074862;28;20086;-71
2022/03/22 08:35:33;;;;;;;50.13;28.70;;;10.60;99.90;;;;;;5066203;28;20290;-70
2022/03/22 08:37:59;;;;;;;47.75;28.17;;;10.70;99.90;;;;;;5075732;28;20434;-70
2022/03/22 08:40:25;;;;;;;50.75;29.00;;;10.80;99.90;;;;;;5042677;28;20044;-70
2022/03/22 08:42:54;;;;;;;47.88;28.70;;;11.00;99.90;;;;;;5029720;28;20105;-70
2022/03/22 08:45:23;;;;;;;49.63;28.63;;;11.20;99.90;;;;;;5044074;28;20075;-78
2022/03/22 08:47:52;;;;;;;50.67;28.25;;;11.30;99.90;;;;;;5047659;28;20472;-76
2022/03/22 08:50:21;;;;;;;47.03;27.67;;;11.50;99.90;;;;;;5073559;28;20032;-76
2022/03/22 08:52:48;;;;;;;52.50;28.10;;;11.70;99.90;;;;;;5075356;28;20062;-73
2022/03/22 08:55:18;;;;;;;47.13;28.88;;;11.30;99.90;;;;;;5057213;28;20039;-73
2022/03/22 08:57:46;;;;;;;44.67;27.35;;;12.10;99.90;;;;;;5093930;28;20113;-73
2022/03/22 09:00:14;;;;;;;48.22;27.73;;;12.20;99.90;;;;;;5074036;28;20044;-73
2022/03/22 09:02:41;;;;;;;45.45;27.00;;;12.40;99.90;;;;;;5071033;28;20050;-73
2022/03/22 09:07:56;;;;;;;44.67;28.35;;;12.80;99.90;;;;;;5081401;28;20472;-73
2022/03/22 09:10:22;;;;;;;46.08;26.80;;;13.00;99.90;;;;;;5090729;28;20123;-73
2022/03/22 09:12:48;;;;;;;47.58;27.58;;;13.20;99.90;;;;;;5069321;28;20045;-73
2022/03/22 09:15:16;;;;;;;46.05;27.15;;;13.40;99.90;;;;;;5058128;28;20461;-73
2022/03/22 09:17:42;;;;;;;46.00;26.88;;;13.50;99.90;;;;;;5075267;28;20126;-73
2022/03/22 09:20:12;;;;;;;42.75;26.45;;;13.60;99.90;;;;;;5067922;28;20464;-73
2022/03/22 09:22:38;;;;;;;44.70;26.70;;;13.80;99.90;;;;;;5061030;28;20048;-73
2022/03/22 09:25:05;;;;;;;40.53;26.40;;;13.90;99.90;;;;;;5053949;28;20048;-73
2022/03/22 09:27:31;;;;;;;43.85;26.40;;;14.10;99.90;;;;;;5073428;28;20048;-73
2022/03/22 09:29:57;;;;;;;43.80;26.45;;;14.10;99.90;;;;;;5082715;28;20048;-73
2022/03/22 09:32:23;;;;;;;46.85;26.35;;;14.30;99.90;;;;;;5095239;28;20054;-73
2022/03/22 09:34:49;;;;;;;40.72;26.17;;;14.40;99.90;;;;;;5075979;28;20043;-73
2022/03/22 09:37:17;;;;;;;37.67;24.90;;;14.60;99.90;;;;;;5074635;28;20384;-73
2022/03/22 09:39:45;;;;;;;43.90;25.00;;;14.80;99.90;;;;;;5086923;28;20079;-73
2022/03/22 09:42:12;;;;;;;38.60;24.00;;;14.80;99.90;;;;;;5074548;28;20039;-73
2022/03/22 09:44:38;;;;;;;42.67;25.13;;;15.00;99.90;;;;;;5078283;28;20044;-73
2022/03/22 09:47:04;;;;;;;40.90;25.10;;;15.10;99.90;;;;;;5077782;28;20039;-73
2022/03/22 09:49:31;;;;;;;39.20;24.33;;;15.20;99.90;;;;;;5079476;28;20089;-73
2022/03/22 09:51:57;;;;;;;37.30;24.27;;;15.30;99.90;;;;;;5063571;28;20079;-74
2022/03/22 09:54:24;;;;;;;40.97;25.20;;;15.40;99.90;;;;;;5083681;28;20082;-73
2022/03/22 09:56:52;;;;;;;41.85;25.13;;;15.50;99.90;;;;;;5058070;28;20097;-73
2022/03/22 09:59:19;;;;;;;42.60;24.05;;;15.60;99.90;;;;;;5089897;28;20044;-73
2022/03/22 10:01:45;;;;;;;40.45;24.50;;;15.80;99.90;;;;;;5053553;28;20052;-73
2022/03/22 10:04:13;;;;;;;39.13;24.60;;;15.90;99.90;;;;;;5063518;28;20111;-73
2022/03/22 10:06:50;;;;;;;42.28;24.27;;;15.90;99.90;;;;;;5074650;28;20086;-73
2022/03/22 10:09:39;;;;;;;38.33;24.00;;;16.10;94.10;;;;;;5080897;28;20491;-73
2022/03/22 10:12:10;;;;;;;41.33;24.70;;;16.20;91.80;;;;;;5047557;28;20136;-73
2022/03/22 10:14:40;;;;;;;38.67;24.15;;;16.30;94.10;;;;;;5081192;28;20086;-73
2022/03/22 10:17:14;;;;;;;38.90;23.13;;;16.40;91.70;;;;;;5074171;28;20051;-73
2022/03/22 10:19:41;;;;;;;38.38;24.08;;;16.50;82.90;;;;;;5056380;28;20040;-73
2022/03/22 10:22:10;;;;;;;38.45;23.65;;;16.60;83.90;;;;;;5070720;28;20072;-73
2022/03/22 10:24:50;;;;;;;40.25;23.88;;;16.70;81.90;;;;;;5094890;28;20058;-73
2022/03/22 10:27:22;;;;;;;36.20;23.42;;;16.80;79.00;;;;;;5069480;28;20373;-73
2022/03/22 10:29:48;;;;;;;38.00;23.60;;;16.90;78.80;;;;;;5046867;28;20475;-73
2022/03/22 10:32:15;;;;;;;38.50;23.65;;;17.00;80.40;;;;;;5072295;28;20036;-73
2022/03/22 10:34:42;;;;;;;38.50;22.33;;;17.20;80.90;;;;;;5071187;28;20039;-72
2022/03/22 10:37:08;;;;;;;43.20;23.30;;;17.30;77.20;;;;;;5056193;28;20464;-73
2022/03/22 10:39:39;;;;;;;34.00;22.55;;;17.30;76.10;;;;;;5056704;28;20059;-73
2022/03/22 10:42:07;;;;;;;42.05;23.20;;;17.30;76.40;;;;;;5047227;28;20035;-73
2022/03/22 10:44:37;;;;;;;37.05;22.33;;;17.40;76.60;;;;;;5079743;28;20109;-77
2022/03/22 10:47:04;;;;;;;38.05;22.63;;;17.40;74.40;;;;;;5047518;28;20040;-72
2022/03/22 10:49:30;;;;;;;35.38;23.20;;;17.60;76.10;;;;;;5078167;28;20051;-75
2022/03/22 10:51:56;;;;;;;38.42;23.75;;;17.70;75.70;;;;;;5081247;28;20071;-72
2022/03/22 10:54:23;;;;;;;41.28;24.38;;;17.80;76.10;;;;;;5070907;28;20043;-74
2022/03/22 10:56:51;;;;;;;37.42;23.17;;;17.90;76.00;;;;;;5056960;28;20169;-73
2022/03/22 10:59:19;;;;;;;35.97;24.10;;;18.10;75.40;;;;;;5067777;28;20186;-75
2022/03/22 11:01:47;;;;;;;37.22;23.23;;;18.10;74.70;;;;;;5029069;28;20052;-74
2022/03/22 11:04:15;;;;;;;39.00;23.73;;;18.30;73.80;;;;;;5058144;28;20040;-74
2022/03/22 11:06:42;;;;;;;38.83;23.50;;;18.40;73.50;;;;;;5072245;28;20040;-74
2022/03/22 11:09:09;;;;;;;36.10;22.63;;;18.50;74.30;;;;;;5059304;28;20125;-74
2022/03/22 11:11:36;;;;;;;39.75;23.75;;;18.50;72.70;;;;;;5101062;28;20398;-74
2022/03/22 11:14:03;;;;;;;38.92;24.23;;;18.50;73.20;;;;;;5065647;28;20893;-73
2022/03/22 11:16:32;;;;;;;37.20;22.70;;;18.70;74.80;;;;;;5091876;28;20046;-73
2022/03/22 11:18:59;;;;;;;38.40;22.88;;;18.90;72.40;;;;;;5077842;28;20040;-73
2022/03/22 11:21:27;;;;;;;36.85;23.65;;;19.00;72.00;;;;;;5060922;28;20036;-73
2022/03/22 11:24:11;;;;;;;38.20;22.70;;;19.10;70.60;;;;;;5094091;28;20479;-74
2022/03/22 11:26:51;;;;;;;37.10;22.45;;;19.20;67.60;;;;;;5050041;28;20042;-74
2022/03/22 11:29:17;;;;;;;45.40;22.83;;;19.20;65.40;;;;;;5072428;28;20090;-74
2022/03/22 11:34:29;;;;;;;35.50;22.70;;;19.30;70.00;;;;;;5070672;28;20044;-74
2022/03/22 11:36:58;;;;;;;37.38;22.25;;;19.20;70.30;;;;;;5059702;28;20185;-74
2022/03/22 11:42:27;;;;;;;37.47;24.15;;;19.50;68.90;;;;;;4983843;28;20042;-74
2022/03/22 11:45:06;;;;;;;37.75;23.17;;;19.50;68.80;;;;;;5038969;28;20480;-74
2022/03/22 11:47:43;;;;;;;37.30;23.75;;;19.70;67.50;;;;;;5077232;28;20048;-74
2022/03/22 11:50:13;;;;;;;36.92;23.55;;;19.90;66.70;;;;;;5092561;28;20039;-74
2022/03/22 11:52:40;;;;;;;33.92;22.75;;;20.00;69.00;;;;;;5058749;28;20047;-73
2022/03/22 11:55:11;;;;;;;35.95;23.95;;;20.10;68.60;;;;;;5083886;28;20499;-73
2022/03/22 11:58:03;;;;;;;40.92;24.10;;;20.60;68.30;;;;;;5060344;28;20083;-78
2022/03/22 12:00:55;;;;;;;39.45;24.35;;;20.90;62.80;;;;;;5093930;28;20040;-73
2022/03/22 12:03:27;;;;;;;40.97;24.15;;;21.10;63.50;;;;;;5063712;28;20539;-74
2022/03/22 12:05:53;;;;;;;36.50;23.42;;;21.60;65.40;;;;;;5076894;28;20044;-72
2022/03/22 12:08:20;;;;;;;37.53;23.52;;;21.70;64.40;;;;;;5075986;28;20047;-72
2022/03/22 12:10:47;;;;;;;41.88;24.33;;;21.90;63.90;;;;;;5076291;28;20052;-73
2022/03/22 12:13:13;;;;;;;38.08;24.13;;;22.30;62.80;;;;;;5029331;28;20040;-74
2022/03/22 12:15:39;;;;;;;35.47;23.20;;;22.40;62.40;;;;;;5057099;28;20048;-73
2022/03/22 12:18:08;;;;;;;36.72;24.70;;;23.10;62.30;;;;;;5061367;28;20477;-73
2022/03/22 12:20:34;;;;;;;35.63;22.65;;;22.80;61.60;;;;;;5063139;28;20044;-75
2022/03/22 12:23:00;;;;;;;38.25;24.33;;;23.40;60.20;;;;;;5062307;28;20048;-74
2022/03/22 12:25:28;;;;;;;37.78;24.90;;;23.50;59.20;;;;;;5028455;28;20434;-74
2022/03/22 12:27:58;;;;;;;40.42;24.00;;;23.70;57.80;;;;;;5023007;28;20041;-73
2022/03/22 12:30:29;;;;;;;35.50;23.20;;;24.10;57.80;;;;;;5047884;28;20040;-68
2022/03/22 12:33:02;;;;;;;36.95;23.63;;;24.10;55.10;;;;;;5029210;28;20051;-70
2022/03/22 12:35:28;;;;;;;36.90;23.63;;;24.40;56.30;;;;;;5057722;28;20081;-70
2022/03/22 12:37:57;;;;;;;38.60;23.30;;;24.70;56.10;;;;;;5043436;28;20500;-71
2022/03/22 12:40:23;;;;;;;35.33;23.27;;;24.90;55.10;;;;;;5050938;28;20079;-70
2022/03/22 12:42:51;;;;;;;33.20;23.27;;;24.90;54.40;;;;;;5058276;28;20066;-71
2022/03/22 12:45:19;;;;;;;34.00;23.08;;;25.00;54.00;;;;;;5056095;28;20051;-71
2022/03/22 12:47:46;;;;;;;33.17;22.95;;;25.00;53.60;;;;;;5056988;28;20044;-70
2022/03/22 12:50:13;;;;;;;32.90;24.05;;;24.90;52.10;;;;;;5039482;28;20041;-70
2022/03/22 12:52:40;;;;;;;35.13;23.25;;;25.00;52.30;;;;;;5046027;28;20040;-71
2022/03/22 12:55:09;;;;;;;32.95;23.02;;;24.80;52.50;;;;;;5052554;28;20052;-70
2022/03/22 12:57:38;;;;;;;31.67;22.52;;;24.70;51.40;;;;;;5055598;28;20052;-70
2022/03/22 13:00:05;;;;;;;34.90;22.65;;;25.00;52.30;;;;;;5032934;28;20048;-70
2022/03/22 13:02:31;;;;;;;31.27;22.40;;;25.10;50.90;;;;;;5037250;28;20412;-70
2022/03/22 13:04:57;;;;;;;33.55;22.35;;;25.50;49.60;;;;;;5070643;28;20044;-71
2022/03/22 13:07:24;;;;;;;32.20;22.23;;;25.60;49.30;;;;;;5055826;28;20131;-70